Stations météo

réclame
Mon MeteoGroup
Sule Skerry, Grande-Bretagne (3010): Température de l'air & dewpoint: 11.01.2018 07:00:00 - 17.01.2018 07:00:00 (GMT)Sule Skerry, Grande-Bretagne (3010): Vitesse du vent & gusts: 11.01.2018 07:00:00 - 17.01.2018 07:00:00 (GMT)Sule Skerry, Grande-Bretagne (3010): Direction du vent: 11.01.2018 07:00:00 - 17.01.2018 07:00:00 (GMT)Sule Skerry, Grande-Bretagne (3010): reduced air pressure: 11.01.2018 07:00:00 - 17.01.2018 07:00:00 (GMT)
Date & Time tt [°C] td [°C] ff [km/h] ff [knt] fx [km/h] fx [knt] dd ppp [hPa]
17.01.2018 07:00:00 - - - - - - - -
17.01.2018 06:00:00 3,6 2,7 50 27 72 39 WNW 980,7
17.01.2018 05:00:00 2,1 1,4 16 9 54 29 W 979,9
17.01.2018 04:00:00 3,7 2,1 39 21 59 32 WNW 978,6
17.01.2018 03:00:00 4,2 1,6 39 21 59 32 W 977,4
17.01.2018 02:00:00 3,3 1,4 31 17 48 26 WSW 976,8
17.01.2018 01:00:00 3,3 2,0 26 14 68 37 WSW 976,0
17.01.2018 00:00:00 2,3 0,4 31 17 50 27 SSW 975,7
16.01.2018 23:00:00 2,9 -0,1 37 20 63 34 WSW 974,8
16.01.2018 22:00:00 3,5 -0,1 39 21 57 31 SW 973,6
16.01.2018 21:00:00 3,2 -0,5 39 21 57 31 WSW 973,2
16.01.2018 20:00:00 4,0 -0,9 37 20 65 35 WSW 972,4
16.01.2018 19:00:00 4,1 -0,1 39 21 61 33 W 972,0
16.01.2018 18:00:00 3,6 0,8 37 20 65 35 W 971,6
16.01.2018 17:00:00 2,6 -0,3 46 25 83 45 WNW 972,0
16.01.2018 16:00:00 3,0 -0,4 31 17 74 40 WSW 971,2
16.01.2018 15:00:00 3,5 -0,3 41 22 70 38 W 971,0
16.01.2018 14:00:00 3,4 1,6 31 17 76 41 WSW 971,2
16.01.2018 13:00:00 3,4 2,2 44 24 59 32 W 971,0
16.01.2018 12:00:00 1,8 1,0 31 17 65 35 WSW 971,6
16.01.2018 11:00:00 2,6 -0,5 34 18 63 34 SW 971,8
16.01.2018 10:00:00 4,3 2,1 41 22 59 32 SW 971,2
16.01.2018 09:00:00 3,6 1,8 35 19 57 31 WSW 971,8
16.01.2018 08:00:00 1,1 -0,4 41 22 87 47 WNW 972,1
16.01.2018 07:00:00 3,7 0,8 44 24 91 49 W 971,2
16.01.2018 06:00:00 4,7 0,9 50 27 76 41 W 971,4
16.01.2018 05:00:00 4,1 1,2 50 27 78 42 W 971,6
16.01.2018 04:00:00 4,1 1,8 44 24 61 33 WSW 971,6
16.01.2018 03:00:00 2,4 0,2 52 28 74 40 W 972,6
16.01.2018 02:00:00 3,3 2,4 50 27 76 41 SW 972,2
16.01.2018 01:00:00 2,1 1,0 37 20 76 41 W 972,8
16.01.2018 00:00:00 4,3 2,1 42 23 80 43 W 972,8
15.01.2018 23:00:00 4,6 3,3 50 27 72 39 W 972,8
15.01.2018 22:00:00 4,2 2,4 37 20 76 41 WSW 973,6
15.01.2018 21:00:00 4,1 2,2 39 21 63 34 WSW 973,4
15.01.2018 20:00:00 4,0 1,9 48 26 63 34 WSW 973,6
15.01.2018 19:00:00 4,3 2,6 34 18 46 25 WSW 974,0
15.01.2018 18:00:00 3,8 2,4 41 22 70 38 WSW 974,6
15.01.2018 17:00:00 3,7 2,2 37 20 68 37 WSW 975,2
15.01.2018 16:00:00 4,2 3,1 34 18 59 32 SW 975,8
15.01.2018 15:00:00 4,7 3,3 41 22 55 30 WSW 976,8
15.01.2018 14:00:00 5,2 4,2 37 20 59 32 SW 977,2
15.01.2018 13:00:00 4,3 3,1 42 23 65 35 WSW 977,8
15.01.2018 12:00:00 4,4 2,8 42 23 59 32 WSW 978,4
15.01.2018 11:00:00 5,6 3,8 42 23 57 31 W 979,0
15.01.2018 10:00:00 5,0 4,1 21 11 54 29 SW 980,0
15.01.2018 09:00:00 4,2 3,4 34 18 63 34 W 980,4
15.01.2018 08:00:00 4,5 3,2 37 20 59 32 WSW 980,8
15.01.2018 07:00:00 5,6 3,9 35 19 54 29 WSW 981,0
15.01.2018 06:00:00 6,2 4,3 37 20 55 30 WSW 981,4
15.01.2018 05:00:00 6,1 4,5 35 19 67 36 WSW 981,4
15.01.2018 04:00:00 7,0 4,9 41 22 54 29 W 981,8
15.01.2018 03:00:00 6,9 5,6 35 19 54 29 SW 982,4
15.01.2018 02:00:00 6,6 5,6 37 20 54 29 WSW 982,2
15.01.2018 01:00:00 7,5 6,9 35 19 59 32 WSW 982,4
15.01.2018 00:00:00 7,8 7,3 39 21 59 32 SSW 982,6
14.01.2018 23:00:00 7,8 7,5 34 18 50 27 SW 982,6
14.01.2018 22:00:00 7,9 7,4 35 19 83 45 SW 983,0
14.01.2018 21:00:00 8,2 6,9 61 33 85 46 SSW 983,4
14.01.2018 20:00:00 8,8 6,9 61 33 91 49 SSW 984,6
14.01.2018 19:00:00 7,2 5,8 52 28 83 45 S 985,6
14.01.2018 18:00:00 6,8 5,4 65 35 91 49 S 986,6
14.01.2018 17:00:00 6,4 4,8 67 36 89 48 S 988,2
14.01.2018 16:00:00 7,0 5,0 63 34 89 48 S 990,4
14.01.2018 15:00:00 7,6 5,6 57 31 78 42 S 992,8
14.01.2018 14:00:00 8,1 5,4 48 26 67 36 S 995,0
14.01.2018 13:00:00 8,0 5,5 48 26 68 37 S 996,9
14.01.2018 12:00:00 7,7 4,8 55 30 70 38 S 998,5
14.01.2018 11:00:00 7,7 5,8 52 28 67 36 S 1000,1
14.01.2018 10:00:00 7,1 5,8 50 27 65 35 SSE 1001,1
14.01.2018 09:00:00 7,0 5,7 50 27 67 36 S 1002,5
14.01.2018 08:00:00 6,6 5,2 50 27 67 36 S 1003,5
14.01.2018 07:00:00 6,7 5,2 54 29 67 36 SSE 1004,1
14.01.2018 06:00:00 6,8 5,3 50 27 68 37 SSE 1005,3
14.01.2018 05:00:00 7,2 5,5 37 20 63 34 S 1006,3
14.01.2018 04:00:00 7,4 5,6 54 29 67 36 S 1007,1
14.01.2018 03:00:00 7,1 5,4 50 27 67 36 S 1007,7
14.01.2018 02:00:00 7,1 5,3 46 25 67 36 SSE 1008,3
14.01.2018 01:00:00 6,9 5,0 54 29 67 36 SSE 1008,7
14.01.2018 00:00:00 6,7 4,8 52 28 67 36 SSE 1009,3
13.01.2018 23:00:00 7,0 5,0 48 26 63 34 SSE 1009,9
13.01.2018 22:00:00 6,8 4,8 50 27 76 41 SSE 1009,9
13.01.2018 21:00:00 6,7 4,5 52 28 67 36 S 1010,3
13.01.2018 20:00:00 6,4 4,0 44 24 65 35 SSE 1010,9
13.01.2018 19:00:00 7,0 4,3 48 26 59 32 SSE 1010,9
13.01.2018 18:00:00 6,9 3,9 50 27 61 33 SSE 1011,3
13.01.2018 17:00:00 7,0 3,6 52 28 61 33 SSE 1011,3
13.01.2018 16:00:00 7,3 3,9 48 26 59 32 SSE 1011,3
13.01.2018 15:00:00 7,2 4,1 46 25 61 33 SSE 1011,7
13.01.2018 14:00:00 6,8 3,9 50 27 68 37 SSE 1012,3
13.01.2018 13:00:00 7,1 4,5 55 30 68 37 SSE 1012,5
13.01.2018 12:00:00 7,0 4,5 54 29 67 36 SSE 1013,1
13.01.2018 11:00:00 6,8 4,3 50 27 65 35 SSE 1013,5
13.01.2018 10:00:00 7,0 4,1 57 31 72 39 SSE 1013,9
13.01.2018 09:00:00 6,7 3,7 55 30 70 38 SSE 1013,5
13.01.2018 08:00:00 6,7 3,8 57 31 70 38 SSE 1013,7
13.01.2018 07:00:00 6,4 3,5 55 30 68 37 SSE 1013,5
13.01.2018 06:00:00 6,7 3,7 55 30 74 40 SSE 1014,3
13.01.2018 05:00:00 6,8 4,0 57 31 76 41 SSE 1014,3
13.01.2018 04:00:00 6,6 3,9 59 32 78 42 SSE 1014,3
13.01.2018 03:00:00 6,4 3,7 61 33 80 43 SSE 1014,5
13.01.2018 02:00:00 6,3 3,5 61 33 81 44 SSE 1014,9
13.01.2018 01:00:00 6,7 4,0 67 36 89 48 SSE 1014,5
13.01.2018 00:00:00 6,7 4,1 70 38 85 46 SSE 1014,7
12.01.2018 23:00:00 7,2 4,7 57 31 80 43 SSE 1015,5
12.01.2018 22:00:00 7,3 4,7 54 29 76 41 SSE 1015,9
12.01.2018 21:00:00 7,6 4,6 59 32 78 42 SSE 1016,1
12.01.2018 20:00:00 7,2 4,5 63 34 85 46 SSE 1015,5
12.01.2018 19:00:00 7,4 4,7 68 37 83 45 SSE 1015,5
12.01.2018 18:00:00 7,1 4,7 55 30 74 40 SSE 1016,9
12.01.2018 17:00:00 7,4 5,3 55 30 72 39 SSE 1016,9
12.01.2018 16:00:00 7,6 6,4 57 31 74 40 SSE 1017,1
12.01.2018 15:00:00 7,5 6,2 52 28 67 36 SSE 1017,5
12.01.2018 14:00:00 7,3 6,0 57 31 68 37 SSE 1017,9
12.01.2018 13:00:00 7,1 5,5 54 29 68 37 SSE 1018,5
12.01.2018 12:00:00 7,2 5,1 57 31 74 40 SSE 1019,1
12.01.2018 11:00:00 6,9 4,8 57 31 72 39 SSE 1019,7
12.01.2018 10:00:00 6,4 4,6 55 30 67 36 SSE 1020,1
12.01.2018 09:00:00 6,6 4,9 52 28 61 33 SSE 1020,1
12.01.2018 08:00:00 6,3 4,5 46 25 59 32 SSE 1020,7
12.01.2018 07:00:00 6,1 4,1 44 24 54 29 SSE 1021,1
12.01.2018 06:00:00 6,0 3,9 42 23 50 27 SSE 1021,7
12.01.2018 05:00:00 6,4 4,3 39 21 52 28 SSE 1021,7
12.01.2018 04:00:00 6,3 4,1 42 23 52 28 SSE 1022,1
12.01.2018 03:00:00 6,7 4,4 41 22 52 28 SSE 1022,5
12.01.2018 02:00:00 6,8 4,4 42 23 52 28 SSE 1022,9
12.01.2018 01:00:00 6,8 4,4 42 23 50 27 SSE 1022,9
12.01.2018 00:00:00 7,0 4,7 35 19 46 25 SSE 1023,3
11.01.2018 23:00:00 6,8 4,1 35 19 - - SSE 1023,7
11.01.2018 22:00:00 6,8 3,8 35 19 - - SSE 1023,3
11.01.2018 21:00:00 6,7 3,5 29 16 - - SSE 1024,3
11.01.2018 20:00:00 7,3 3,7 31 17 - - SSE 1024,3
11.01.2018 19:00:00 7,2 3,3 24 13 - - SSE 1023,7
11.01.2018 18:00:00 7,4 3,2 21 11 - - SSE 1023,1
11.01.2018 17:00:00 7,1 3,1 13 7 - - SSE 1023,3
11.01.2018 16:00:00 7,3 2,4 11 6 - - S 1023,1
11.01.2018 15:00:00 7,5 1,3 9 5 - - SE 1022,7
11.01.2018 14:00:00 8,1 1,4 8 4 - - S 1022,1
11.01.2018 13:00:00 8,2 1,2 5 3 - - S 1021,7
11.01.2018 12:00:00 7,8 1,1 4 2 - - NNE 1021,5
11.01.2018 11:00:00 7,7 1,5 4 2 - - NNW 1021,5
11.01.2018 10:00:00 7,6 1,1 4 2 - - WNW 1020,7
11.01.2018 09:00:00 7,5 1,7 9 5 - - NW 1019,5
11.01.2018 08:00:00 7,5 1,8 11 6 - - NW 1018,9
11.01.2018 07:00:00 7,7 2,2 13 7 - - NNW 1018,1

tt = Température de l'air
td = dewpoint
ff = Vitesse du vent
fx = gusts
dd = Direction du vent
ppp = reduced air pressure

stations d'obs. à proximité